Time;durP1;ratioP1;P1;durP2;ratioP2;P2;SDS_P1;SDS_P2;PMS_P1;PMS_P2;Temp;Humidity;BMP_temperature;BMP_pressure;BME280_temperature;BME280_humidity;BME280_pressure;Samples;Min_cycle;Max_cycle;Signal;HPM_P1;HPM_P2
2024/01/27 00:00:26;;;;;;;69.63;57.72;;;8.20;96.90;;;;;;5006862;28;20061;-82
2024/01/27 00:02:52;;;;;;;64.93;55.13;;;8.20;96.80;;;;;;5016149;28;20041;-82
2024/01/27 00:05:18;;;;;;;87.93;72.15;;;8.20;96.70;;;;;;5007596;28;20045;-82
2024/01/27 00:07:43;;;;;;;70.80;56.80;;;8.20;96.50;;;;;;5016203;28;20037;-82
2024/01/27 00:10:09;;;;;;;59.33;48.80;;;8.10;96.60;;;;;;5016070;28;20527;-82
2024/01/27 00:12:35;;;;;;;68.05;55.15;;;8.10;96.60;;;;;;5015521;28;20044;-82
2024/01/27 00:15:00;;;;;;;72.60;58.53;;;8.00;96.60;;;;;;4995269;28;20087;-82
2024/01/27 00:17:27;;;;;;;70.55;57.20;;;8.00;96.70;;;;;;5012417;28;20056;-82
2024/01/27 00:19:54;;;;;;;69.60;58.03;;;8.10;96.70;;;;;;4998120;28;20061;-81
2024/01/27 00:22:20;;;;;;;70.13;59.47;;;8.20;96.80;;;;;;5013778;28;20069;-81
2024/01/27 00:24:46;;;;;;;67.10;53.75;;;8.20;96.70;;;;;;5015578;28;20045;-81
2024/01/27 00:27:12;;;;;;;62.28;50.63;;;8.20;96.60;;;;;;5014155;28;20045;-79
2024/01/27 00:29:38;;;;;;;69.63;57.05;;;8.10;96.50;;;;;;5015607;28;20038;-80
2024/01/27 00:32:03;;;;;;;72.32;58.58;;;8.00;96.60;;;;;;5015095;28;20038;-80
2024/01/27 00:34:29;;;;;;;65.20;54.15;;;8.00;96.70;;;;;;5015414;28;20050;-80
2024/01/27 00:36:55;;;;;;;70.63;56.55;;;8.00;96.70;;;;;;5015278;28;20034;-81
2024/01/27 00:39:20;;;;;;;65.07;54.55;;;8.00;96.70;;;;;;5015210;28;20034;-80
2024/01/27 00:41:46;;;;;;;70.30;57.60;;;8.00;96.90;;;;;;5015303;28;20053;-80
2024/01/27 00:44:12;;;;;;;70.57;57.38;;;8.00;96.80;;;;;;5015252;28;20045;-80
2024/01/27 00:46:38;;;;;;;67.82;56.67;;;8.00;96.70;;;;;;5015585;28;20049;-80
2024/01/27 00:49:04;;;;;;;67.00;56.15;;;8.00;96.70;;;;;;5014967;28;20246;-80
2024/01/27 00:51:29;;;;;;;71.28;56.50;;;8.00;96.60;;;;;;5014910;28;20063;-80
2024/01/27 00:53:55;;;;;;;88.10;71.38;;;8.00;96.60;;;;;;5015470;28;20038;-79
2024/01/27 00:56:21;;;;;;;70.32;56.67;;;8.00;96.60;;;;;;4996875;28;20052;-80
2024/01/27 00:58:46;;;;;;;67.90;55.47;;;7.90;96.70;;;;;;5013404;28;20037;-80
2024/01/27 01:01:13;;;;;;;98.80;75.78;;;7.90;96.80;;;;;;5014185;28;20042;-80
2024/01/27 01:03:38;;;;;;;70.47;57.00;;;7.90;96.70;;;;;;5015336;28;20037;-80
2024/01/27 01:06:04;;;;;;;65.88;54.80;;;7.70;96.90;;;;;;5014994;28;20400;-79
2024/01/27 01:08:31;;;;;;;62.92;51.25;;;7.70;96.90;;;;;;5023968;28;20124;-79
2024/01/27 01:10:57;;;;;;;73.45;57.92;;;7.60;96.70;;;;;;5002049;28;20045;-79
2024/01/27 01:13:22;;;;;;;72.80;59.33;;;7.60;96.70;;;;;;5012996;28;20042;-80
2024/01/27 01:15:48;;;;;;;65.20;52.00;;;7.50;96.70;;;;;;5014694;28;20045;-80
2024/01/27 01:18:14;;;;;;;70.85;56.05;;;7.50;96.80;;;;;;5014272;28;20058;-80
2024/01/27 01:20:39;;;;;;;61.22;48.42;;;7.40;97.00;;;;;;5014358;28;20121;-79
2024/01/27 01:23:05;;;;;;;73.72;58.35;;;7.30;97.00;;;;;;5014686;28;20368;-79
2024/01/27 01:25:31;;;;;;;81.50;64.68;;;7.30;97.20;;;;;;5014594;28;20125;-80
2024/01/27 01:27:56;;;;;;;62.40;49.70;;;7.10;97.30;;;;;;5013699;28;20034;-79
2024/01/27 01:30:22;;;;;;;99.45;77.07;;;7.00;97.70;;;;;;5014443;28;20145;-80
2024/01/27 01:32:48;;;;;;;56.25;46.60;;;6.90;97.70;;;;;;5014568;28;20046;-81
2024/01/27 01:35:14;;;;;;;151.05;95.68;;;6.70;98.20;;;;;;4996776;28;20168;-81
2024/01/27 01:37:40;;;;;;;66.60;50.50;;;6.40;98.40;;;;;;5013703;28;20484;-81
2024/01/27 01:40:07;;;;;;;54.30;42.15;;;6.40;98.80;;;;;;5014456;28;20045;-80
2024/01/27 01:42:32;;;;;;;64.07;49.03;;;6.40;98.50;;;;;;5013442;28;20532;-81
2024/01/27 01:44:58;;;;;;;105.10;60.17;;;6.50;98.40;;;;;;5013563;28;20116;-81
2024/01/27 01:47:24;;;;;;;58.78;44.92;;;6.60;98.20;;;;;;5013509;28;20164;-81
2024/01/27 01:49:50;;;;;;;117.72;58.47;;;6.50;98.10;;;;;;5013567;28;20046;-81
2024/01/27 01:52:19;;;;;;;285.73;99.78;;;6.50;98.10;;;;;;5013820;28;20466;-81
2024/01/27 01:54:51;;;;;;;67.90;51.37;;;6.10;98.40;;;;;;5014561;28;20045;-81
2024/01/27 01:57:17;;;;;;;185.93;79.15;;;6.10;98.90;;;;;;5006678;28;20033;-81
2024/01/27 01:59:43;;;;;;;64.10;48.70;;;6.10;98.90;;;;;;4992686;28;20030;-81
2024/01/27 02:02:09;;;;;;;119.90;51.63;;;6.10;99.00;;;;;;5005137;28;20034;-78
2024/01/27 02:04:45;;;;;;;68.95;42.38;;;6.10;98.80;;;;;;5013830;28;20101;-78
2024/01/27 02:07:11;;;;;;;48.15;37.05;;;6.10;98.80;;;;;;5013764;28;20498;-78
2024/01/27 02:09:37;;;;;;;47.25;38.80;;;6.00;99.00;;;;;;5012777;28;20030;-78
2024/01/27 02:12:03;;;;;;;50.33;41.15;;;6.00;99.10;;;;;;5013710;28;20129;-81
2024/01/27 02:14:29;;;;;;;53.78;40.97;;;6.10;99.00;;;;;;4995830;28;20054;-80
2024/01/27 02:16:54;;;;;;;53.60;43.13;;;6.10;98.80;;;;;;4975599;28;20051;-80
2024/01/27 02:19:20;;;;;;;69.43;43.00;;;6.20;98.80;;;;;;4975701;28;20114;-79
2024/01/27 02:21:46;;;;;;;44.92;37.08;;;6.20;98.70;;;;;;4961122;28;20508;-80
2024/01/27 02:24:11;;;;;;;103.80;49.22;;;6.30;98.50;;;;;;4984982;28;20505;-80
2024/01/27 02:26:37;;;;;;;101.43;45.53;;;6.20;98.40;;;;;;4985029;28;20051;-80
2024/01/27 02:29:03;;;;;;;240.38;61.20;;;6.10;98.50;;;;;;4980571;28;20169;-81
2024/01/27 02:31:29;;;;;;;175.48;49.47;;;6.10;98.40;;;;;;4990470;28;20062;-80
2024/01/27 02:33:54;;;;;;;47.28;36.80;;;5.80;98.60;;;;;;4979703;28;20043;-81
2024/01/27 02:36:20;;;;;;;69.65;40.90;;;5.80;98.70;;;;;;4998647;28;20084;-80
2024/01/27 02:38:46;;;;;;;212.95;60.17;;;5.80;98.70;;;;;;4967474;28;20109;-80
2024/01/27 02:41:11;;;;;;;69.78;39.53;;;5.80;98.70;;;;;;4993271;28;20050;-83
2024/01/27 02:43:38;;;;;;;159.57;61.40;;;5.60;98.80;;;;;;4981523;28;20512;-84
2024/01/27 02:46:12;;;;;;;42.80;36.67;;;5.60;98.90;;;;;;4991476;28;20034;-83
2024/01/27 02:48:42;;;;;;;290.70;72.47;;;5.60;99.10;;;;;;4988958;28;20396;-84
2024/01/27 02:51:08;;;;;;;48.67;33.77;;;5.40;98.50;;;;;;4977789;28;20051;-84
2024/01/27 02:53:34;;;;;;;216.30;58.40;;;5.20;99.20;;;;;;4975619;28;20047;-83
2024/01/27 02:55:59;;;;;;;137.13;41.30;;;5.30;99.20;;;;;;4970797;28;20171;-84
2024/01/27 02:58:25;;;;;;;153.88;47.38;;;5.30;99.10;;;;;;4970270;28;20088;-84
2024/01/27 03:00:51;;;;;;;152.93;51.50;;;5.30;99.10;;;;;;4988249;28;20034;-83
2024/01/27 03:03:16;;;;;;;49.60;33.58;;;5.10;99.20;;;;;;4989718;28;20117;-84
2024/01/27 03:05:42;;;;;;;267.45;68.90;;;5.20;99.30;;;;;;4960800;28;20072;-82
2024/01/27 03:08:07;;;;;;;163.77;48.63;;;5.00;99.40;;;;;;4979230;28;20049;-83
2024/01/27 03:10:33;;;;;;;158.95;45.97;;;5.10;99.80;;;;;;4989000;28;20027;-79
2024/01/27 03:12:59;;;;;;;43.67;31.98;;;5.00;99.90;;;;;;4978895;28;20049;-79
2024/01/27 03:15:25;;;;;;;143.32;42.95;;;5.00;99.80;;;;;;5003767;28;20049;-79
2024/01/27 03:17:50;;;;;;;47.00;31.13;;;5.00;99.80;;;;;;5012882;28;20048;-80
2024/01/27 03:20:16;;;;;;;30.88;26.92;;;4.90;99.90;;;;;;4995626;28;20080;-79
2024/01/27 03:22:42;;;;;;;32.35;28.63;;;4.90;99.90;;;;;;5013322;28;20113;-80
2024/01/27 03:25:13;;;;;;;107.45;42.33;;;5.00;99.80;;;;;;5017346;28;20076;-80
2024/01/27 03:27:38;;;;;;;170.95;43.70;;;5.10;99.80;;;;;;5014895;28;20061;-79
2024/01/27 03:30:05;;;;;;;37.83;31.58;;;5.10;99.70;;;;;;5012734;28;20041;-80
2024/01/27 03:32:34;;;;;;;40.17;32.03;;;5.10;99.80;;;;;;5016559;28;20117;-79
2024/01/27 03:35:00;;;;;;;64.43;33.53;;;5.30;99.90;;;;;;5016527;28;20120;-79
2024/01/27 03:37:26;;;;;;;222.63;59.10;;;5.30;99.50;;;;;;5015879;28;20042;-80
2024/01/27 03:39:52;;;;;;;32.15;28.05;;;5.00;99.30;;;;;;5016398;28;20448;-79
2024/01/27 03:42:18;;;;;;;70.60;34.22;;;4.90;99.70;;;;;;4998564;28;20128;-80
2024/01/27 03:44:43;;;;;;;68.68;36.13;;;4.90;99.70;;;;;;5015678;28;20361;-80
2024/01/27 03:47:09;;;;;;;34.00;27.50;;;4.90;99.80;;;;;;4996712;28;20061;-80
2024/01/27 03:49:35;;;;;;;39.53;31.67;;;5.00;99.70;;;;;;5016389;28;20042;-81
2024/01/27 03:52:00;;;;;;;35.95;30.98;;;5.00;99.50;;;;;;5019402;28;20140;-81
2024/01/27 03:54:26;;;;;;;166.32;48.92;;;5.10;99.80;;;;;;5022695;28;20057;-81
2024/01/27 03:56:52;;;;;;;37.75;31.73;;;5.10;99.10;;;;;;5016798;28;20034;-82
2024/01/27 03:59:17;;;;;;;34.90;29.13;;;5.10;99.20;;;;;;5016118;28;20070;-82
2024/01/27 04:01:43;;;;;;;56.22;31.70;;;5.10;99.10;;;;;;5014890;28;20030;-80
2024/01/27 04:04:09;;;;;;;36.67;30.92;;;5.10;99.10;;;;;;5015991;28;20084;-82
2024/01/27 04:06:39;;;;;;;38.42;30.50;;;5.10;99.10;;;;;;5015390;28;20050;-81
2024/01/27 04:09:05;;;;;;;46.40;29.83;;;5.10;99.00;;;;;;5015835;28;20042;-84
2024/01/27 04:11:30;;;;;;;79.00;38.65;;;5.10;99.00;;;;;;4995907;28;20429;-82
2024/01/27 04:13:56;;;;;;;54.85;31.83;;;5.00;98.60;;;;;;5019356;28;20057;-83
2024/01/27 04:16:22;;;;;;;57.58;30.65;;;4.90;98.60;;;;;;5012678;28;20066;-82
2024/01/27 04:18:47;;;;;;;55.95;38.10;;;4.90;98.80;;;;;;4987176;28;20516;-82
2024/01/27 04:21:13;;;;;;;36.33;30.30;;;4.70;99.00;;;;;;5015440;28;20038;-82
2024/01/27 04:23:41;;;;;;;36.83;29.58;;;4.60;99.40;;;;;;5007900;28;20053;-82
2024/01/27 04:26:07;;;;;;;41.72;28.35;;;4.60;99.40;;;;;;4997575;28;20037;-82
2024/01/27 04:28:32;;;;;;;34.40;28.00;;;4.70;99.30;;;;;;5002089;28;20042;-81
2024/01/27 04:30:58;;;;;;;185.13;59.15;;;4.70;99.20;;;;;;4995666;28;20034;-82
2024/01/27 04:33:24;;;;;;;35.28;29.58;;;4.40;99.10;;;;;;5019553;28;20084;-81
2024/01/27 04:35:49;;;;;;;42.67;28.70;;;4.30;99.80;;;;;;5015426;28;20117;-80
2024/01/27 04:38:15;;;;;;;33.17;26.38;;;4.40;99.90;;;;;;5003769;28;20049;-80
2024/01/27 04:40:41;;;;;;;30.85;26.05;;;4.60;99.90;;;;;;5015342;28;20123;-81
2024/01/27 04:43:06;;;;;;;34.28;27.58;;;4.60;99.50;;;;;;5015324;28;20042;-81
2024/01/27 04:45:32;;;;;;;55.30;27.73;;;4.70;99.60;;;;;;5011311;28;20118;-81
2024/01/27 04:47:58;;;;;;;29.55;24.67;;;4.80;99.30;;;;;;5012820;28;20029;-81
2024/01/27 04:50:23;;;;;;;132.60;45.75;;;4.80;99.20;;;;;;5011904;28;20050;-80
2024/01/27 04:52:49;;;;;;;98.90;30.60;;;4.70;98.90;;;;;;5014998;28;20070;-81
2024/01/27 04:55:15;;;;;;;60.60;28.90;;;4.60;99.20;;;;;;5014501;28;20472;-80
2024/01/27 04:57:40;;;;;;;38.92;25.88;;;4.60;99.40;;;;;;4994152;28;20492;-80
2024/01/27 05:00:07;;;;;;;32.35;26.55;;;4.60;99.50;;;;;;5013331;28;20041;-80
2024/01/27 05:02:33;;;;;;;37.08;26.67;;;4.60;99.50;;;;;;4989060;28;20047;-80
2024/01/27 05:04:59;;;;;;;47.17;26.58;;;4.70;99.70;;;;;;5012449;28;20480;-81
2024/01/27 05:07:25;;;;;;;34.90;25.90;;;4.70;99.40;;;;;;5015032;28;20038;-80
2024/01/27 05:09:50;;;;;;;63.38;32.65;;;4.80;99.40;;;;;;5011612;28;20030;-81
2024/01/27 05:12:16;;;;;;;26.98;22.98;;;4.80;99.30;;;;;;5012041;28;20045;-82
2024/01/27 05:14:45;;;;;;;28.13;23.92;;;4.80;99.30;;;;;;5004104;28;20061;-82
2024/01/27 05:17:11;;;;;;;69.65;28.08;;;4.80;99.40;;;;;;4995093;28;20045;-83
2024/01/27 05:19:36;;;;;;;35.28;24.92;;;4.90;99.20;;;;;;5014798;28;20461;-82
2024/01/27 05:22:02;;;;;;;25.33;20.98;;;4.90;99.10;;;;;;4996959;28;20033;-82
2024/01/27 05:24:28;;;;;;;28.00;23.77;;;4.90;99.10;;;;;;4993750;28;20049;-82
2024/01/27 05:26:53;;;;;;;27.27;23.52;;;4.90;99.30;;;;;;5010877;28;20069;-82
2024/01/27 05:29:19;;;;;;;26.17;22.52;;;5.00;99.40;;;;;;4996972;28;20042;-82
2024/01/27 05:31:45;;;;;;;27.20;23.42;;;5.00;99.40;;;;;;4996383;28;20053;-82
2024/01/27 05:34:11;;;;;;;26.17;22.40;;;5.10;99.40;;;;;;5015770;28;20045;-83
2024/01/27 05:36:37;;;;;;;26.02;22.60;;;5.20;99.30;;;;;;5003061;28;20092;-83
2024/01/27 05:39:06;;;;;;;42.28;21.08;;;5.30;99.10;;;;;;4988863;28;20133;-78
2024/01/27 05:41:32;;;;;;;24.95;21.67;;;5.20;98.60;;;;;;4993682;28;20396;-81
2024/01/27 05:43:58;;;;;;;26.40;23.10;;;5.20;98.90;;;;;;5014151;28;20038;-82
2024/01/27 05:46:24;;;;;;;34.58;24.65;;;5.20;99.00;;;;;;5013559;28;20041;-81
2024/01/27 05:48:53;;;;;;;65.88;28.17;;;5.20;99.10;;;;;;4995578;28;20472;-81
2024/01/27 05:51:23;;;;;;;27.00;19.75;;;5.20;98.80;;;;;;5013618;28;20127;-83
2024/01/27 05:53:49;;;;;;;41.85;24.17;;;5.00;99.10;;;;;;5013616;28;20072;-83
2024/01/27 05:56:16;;;;;;;40.22;25.23;;;4.90;99.20;;;;;;5017726;28;20117;-80
2024/01/27 05:58:42;;;;;;;54.13;26.08;;;5.00;99.20;;;;;;5013499;28;20030;-80
2024/01/27 06:01:09;;;;;;;25.05;19.25;;;4.80;99.20;;;;;;5013673;28;20037;-79
2024/01/27 06:03:35;;;;;;;27.58;21.58;;;4.70;99.60;;;;;;5013636;28;20034;-80
2024/01/27 06:06:01;;;;;;;146.27;35.70;;;4.80;99.60;;;;;;5013707;28;20105;-82
2024/01/27 06:08:27;;;;;;;79.75;23.08;;;4.80;99.50;;;;;;5010885;28;20109;-83
2024/01/27 06:10:52;;;;;;;29.05;19.95;;;4.70;99.50;;;;;;5013845;28;20113;-83
2024/01/27 06:13:18;;;;;;;53.85;22.75;;;4.70;99.70;;;;;;4992489;28;20487;-83
2024/01/27 06:15:44;;;;;;;26.17;22.67;;;4.70;99.80;;;;;;4985570;28;20081;-83
2024/01/27 06:18:09;;;;;;;28.98;22.38;;;4.80;99.90;;;;;;4995435;28;20487;-83
2024/01/27 06:20:35;;;;;;;27.15;23.10;;;4.90;99.90;;;;;;4996193;28;20096;-82
2024/01/27 06:23:01;;;;;;;27.50;23.52;;;5.00;99.90;;;;;;5013602;28;20037;-83
2024/01/27 06:25:27;;;;;;;27.48;23.10;;;5.10;99.90;;;;;;5011895;28;20042;-83
2024/01/27 06:27:53;;;;;;;31.65;22.48;;;5.20;99.80;;;;;;5013419;28;20034;-83
2024/01/27 06:30:19;;;;;;;26.60;22.83;;;5.30;99.80;;;;;;5016951;28;20524;-83
2024/01/27 06:32:47;;;;;;;26.95;22.80;;;5.40;99.80;;;;;;5005044;28;20477;-83
2024/01/27 06:35:12;;;;;;;28.75;23.95;;;5.40;99.60;;;;;;4983368;28;20053;-82
2024/01/27 06:37:38;;;;;;;26.60;19.95;;;5.50;99.70;;;;;;5012916;28;20026;-82
2024/01/27 06:40:04;;;;;;;27.88;22.83;;;5.40;99.40;;;;;;5012968;28;20038;-82
2024/01/27 06:42:30;;;;;;;29.55;23.77;;;5.40;99.60;;;;;;4983322;28;20640;-82
2024/01/27 06:44:56;;;;;;;33.45;20.33;;;5.50;99.60;;;;;;4980063;28;20034;-82
2024/01/27 06:47:22;;;;;;;31.33;24.48;;;5.40;99.20;;;;;;4974280;28;20035;-82
2024/01/27 06:49:47;;;;;;;28.70;24.38;;;5.40;99.50;;;;;;5000436;28;20038;-82
2024/01/27 06:52:13;;;;;;;31.80;26.38;;;5.40;99.60;;;;;;5012346;28;20057;-82
2024/01/27 06:54:43;;;;;;;30.88;25.60;;;5.50;99.60;;;;;;4979432;28;20050;-83
2024/01/27 06:57:21;;;;;;;31.35;26.23;;;5.60;99.50;;;;;;4979332;28;21868;-82
2024/01/27 06:59:52;;;;;;;30.73;24.58;;;5.60;99.50;;;;;;4987020;28;20460;-81
2024/01/27 07:02:19;;;;;;;37.60;23.13;;;5.70;99.50;;;;;;4998845;28;20044;-82
2024/01/27 07:04:44;;;;;;;29.02;22.27;;;5.70;99.20;;;;;;5007489;28;20042;-81
2024/01/27 07:07:10;;;;;;;45.97;26.77;;;5.70;99.20;;;;;;5006934;28;20096;-82
2024/01/27 07:09:36;;;;;;;31.63;25.45;;;5.60;99.20;;;;;;4996584;28;20031;-83
2024/01/27 07:12:02;;;;;;;30.88;25.60;;;5.60;99.30;;;;;;5011651;28;20048;-83
2024/01/27 07:14:27;;;;;;;26.58;21.58;;;5.60;99.40;;;;;;4991270;28;20062;-83
2024/01/27 07:16:53;;;;;;;24.63;21.38;;;5.70;99.90;;;;;;4993675;28;20030;-81
2024/01/27 07:19:19;;;;;;;135.30;33.60;;;5.80;99.90;;;;;;4990672;28;20524;-81
2024/01/27 07:21:48;;;;;;;240.68;36.17;;;5.70;99.10;;;;;;4990882;28;20034;-81
2024/01/27 07:24:14;;;;;;;26.15;23.02;;;5.60;99.30;;;;;;4990901;28;20042;-81
2024/01/27 07:26:41;;;;;;;243.82;44.03;;;5.50;99.40;;;;;;4991784;28;20035;-82
2024/01/27 07:29:07;;;;;;;196.68;32.35;;;5.40;99.40;;;;;;4974546;28;20049;-82
2024/01/27 07:31:33;;;;;;;63.55;19.95;;;5.30;99.70;;;;;;4991606;28;20040;-81
2024/01/27 07:33:59;;;;;;;54.20;19.95;;;5.30;99.90;;;;;;4991513;28;20105;-83
2024/01/27 07:36:26;;;;;;;30.10;23.00;;;5.20;99.90;;;;;;4992295;28;20031;-81
2024/01/27 07:38:51;;;;;;;25.38;19.67;;;5.30;99.90;;;;;;4992417;28;20043;-81
2024/01/27 07:41:17;;;;;;;27.80;22.17;;;5.20;99.90;;;;;;4984329;28;20089;-83
2024/01/27 07:43:43;;;;;;;33.20;19.27;;;5.30;99.90;;;;;;4979117;28;20046;-81
2024/01/27 07:46:09;;;;;;;30.30;23.70;;;5.30;99.90;;;;;;4975013;28;20526;-85
2024/01/27 07:48:34;;;;;;;33.25;25.88;;;5.30;99.90;;;;;;4992912;28;20109;-85
2024/01/27 07:51:00;;;;;;;130.13;32.40;;;5.40;99.90;;;;;;4980004;28;20034;-85
2024/01/27 07:53:26;;;;;;;109.53;32.13;;;5.50;99.90;;;;;;5007579;28;20026;-86
2024/01/27 07:55:53;;;;;;;30.20;23.50;;;5.30;99.90;;;;;;4975213;28;20034;-85
2024/01/27 07:58:19;;;;;;;27.23;22.92;;;5.40;99.90;;;;;;4992629;28;20461;-85
2024/01/27 08:00:45;;;;;;;32.88;23.85;;;5.50;99.90;;;;;;4992742;28;20034;-85
2024/01/27 08:03:11;;;;;;;26.92;22.80;;;5.40;99.90;;;;;;4980073;28;20112;-84
2024/01/27 08:05:36;;;;;;;25.63;22.20;;;5.50;99.90;;;;;;4996389;28;20026;-85
2024/01/27 08:08:02;;;;;;;268.25;47.10;;;5.60;99.90;;;;;;4993746;28;20042;-85
2024/01/27 08:10:28;;;;;;;28.67;24.00;;;5.60;99.90;;;;;;4991923;28;20031;-82
2024/01/27 08:12:54;;;;;;;25.88;22.02;;;5.50;99.90;;;;;;4976770;28;20046;-85
2024/01/27 08:15:19;;;;;;;167.45;34.90;;;5.60;99.90;;;;;;5015123;28;20054;-85
2024/01/27 08:17:45;;;;;;;73.22;25.20;;;5.70;99.90;;;;;;4997465;28;20040;-84
2024/01/27 08:20:12;;;;;;;26.40;22.58;;;5.70;99.90;;;;;;4994908;28;20050;-86
2024/01/27 08:22:41;;;;;;;217.13;40.63;;;5.70;99.90;;;;;;5015275;28;20116;-85
2024/01/27 08:25:07;;;;;;;23.08;20.38;;;5.70;99.90;;;;;;5013401;28;20034;-85
2024/01/27 08:27:32;;;;;;;26.48;22.58;;;5.50;99.90;;;;;;5014961;28;20435;-85
2024/01/27 08:29:58;;;;;;;90.68;29.58;;;5.50;99.90;;;;;;5015710;28;20038;-85
2024/01/27 08:32:24;;;;;;;32.95;21.33;;;5.40;99.90;;;;;;5015699;28;20049;-86
2024/01/27 08:34:50;;;;;;;234.95;46.25;;;5.40;99.90;;;;;;5015976;28;20045;-85
2024/01/27 08:37:19;;;;;;;145.82;41.38;;;5.40;99.90;;;;;;4995996;28;20030;-82
2024/01/27 08:39:45;;;;;;;61.35;27.02;;;5.10;99.90;;;;;;4987453;28;20029;-82
2024/01/27 08:42:11;;;;;;;83.13;27.08;;;5.10;99.90;;;;;;5013440;28;20076;-82
2024/01/27 08:44:38;;;;;;;212.95;51.28;;;4.90;99.90;;;;;;4997138;28;20427;-82
2024/01/27 08:47:04;;;;;;;136.40;33.28;;;4.90;99.90;;;;;;5005954;28;20042;-82
2024/01/27 08:49:30;;;;;;;30.60;25.70;;;4.90;99.90;;;;;;4989132;28;20149;-82
2024/01/27 08:51:56;;;;;;;152.38;35.35;;;4.90;99.90;;;;;;4981870;28;20457;-81
2024/01/27 08:54:23;;;;;;;31.02;24.20;;;5.00;99.90;;;;;;4978336;28;20086;-82
2024/01/27 08:56:48;;;;;;;29.30;25.10;;;5.00;99.90;;;;;;5003373;28;20069;-86
2024/01/27 08:59:14;;;;;;;153.32;44.55;;;4.90;99.90;;;;;;5011300;28;20085;-86
2024/01/27 09:01:40;;;;;;;37.92;28.92;;;5.00;99.90;;;;;;4997855;28;20404;-85
2024/01/27 09:04:06;;;;;;;35.13;27.80;;;5.00;99.90;;;;;;5013788;28;20026;-86
2024/01/27 09:06:32;;;;;;;31.23;25.90;;;5.10;99.90;;;;;;5017094;28;20037;-81
2024/01/27 09:08:57;;;;;;;121.07;44.65;;;5.20;99.90;;;;;;5016497;28;20344;-83
2024/01/27 09:11:23;;;;;;;29.27;23.73;;;5.30;99.90;;;;;;5015593;28;20042;-82
2024/01/27 09:13:51;;;;;;;44.08;29.33;;;5.20;99.90;;;;;;5015425;28;20034;-83
2024/01/27 09:16:18;;;;;;;144.55;47.97;;;5.30;99.90;;;;;;4997507;28;20073;-83
2024/01/27 09:18:43;;;;;;;38.22;30.00;;;5.40;99.90;;;;;;5015131;28;20381;-83
2024/01/27 09:21:09;;;;;;;38.80;30.83;;;5.40;99.90;;;;;;5015162;28;20029;-83
2024/01/27 09:23:35;;;;;;;47.20;31.73;;;5.50;99.90;;;;;;5014191;28;20460;-83
2024/01/27 09:26:01;;;;;;;42.05;33.30;;;5.60;99.90;;;;;;5014706;28;20083;-83
2024/01/27 09:28:26;;;;;;;34.05;27.65;;;5.70;99.90;;;;;;5015309;28;20097;-83
2024/01/27 09:30:52;;;;;;;55.30;34.30;;;5.70;99.90;;;;;;5014721;28;20121;-83
2024/01/27 09:33:19;;;;;;;47.90;34.95;;;5.90;99.90;;;;;;5014959;28;20480;-83
2024/01/27 09:35:50;;;;;;;39.42;28.60;;;5.60;99.80;;;;;;5013788;28;20121;-83
2024/01/27 09:38:16;;;;;;;38.55;30.77;;;5.60;99.90;;;;;;5009580;28;20499;-80
2024/01/27 09:40:42;;;;;;;39.55;30.75;;;5.70;99.90;;;;;;4992603;28;20106;-84
2024/01/27 09:43:14;;;;;;;38.67;30.23;;;5.80;99.90;;;;;;5010095;28;20030;-81
2024/01/27 09:45:40;;;;;;;40.65;31.75;;;5.90;99.90;;;;;;5006363;28;20029;-86
2024/01/27 09:48:10;;;;;;;32.60;26.70;;;6.00;99.90;;;;;;5015285;28;20100;-85
2024/01/27 09:50:36;;;;;;;38.85;30.48;;;6.10;99.90;;;;;;4990373;28;20050;-87
2024/01/27 09:53:07;;;;;;;39.17;30.42;;;6.20;99.90;;;;;;5012635;28;20113;-87
2024/01/27 09:55:33;;;;;;;37.63;30.05;;;6.20;99.90;;;;;;4993300;28;20050;-87
2024/01/27 09:58:00;;;;;;;43.92;31.40;;;6.30;99.80;;;;;;4977502;28;20034;-87
2024/01/27 10:00:27;;;;;;;38.50;29.15;;;6.40;99.70;;;;;;4994698;28;20388;-87
2024/01/27 10:02:54;;;;;;;35.83;29.58;;;6.40;99.60;;;;;;4994700;28;20058;-86
2024/01/27 10:05:20;;;;;;;39.58;31.73;;;6.30;99.70;;;;;;4995870;28;20503;-87
2024/01/27 10:07:46;;;;;;;41.70;31.75;;;6.40;99.90;;;;;;5013131;28;20057;-86
2024/01/27 10:10:11;;;;;;;38.60;30.27;;;6.50;99.90;;;;;;5010174;28;20481;-82
2024/01/27 10:12:41;;;;;;;38.47;30.90;;;6.60;99.80;;;;;;5014036;28;20432;-82
2024/01/27 10:15:19;;;;;;;38.83;31.67;;;6.70;99.70;;;;;;5012583;28;20049;-85
2024/01/27 10:17:45;;;;;;;43.55;34.53;;;6.80;99.60;;;;;;5012932;28;20041;-86
2024/01/27 10:20:15;;;;;;;42.20;33.83;;;6.90;99.50;;;;;;4996117;28;20045;-85
2024/01/27 10:22:45;;;;;;;41.05;33.63;;;6.90;99.40;;;;;;5013473;28;20384;-82
2024/01/27 10:25:12;;;;;;;39.70;31.27;;;6.90;99.30;;;;;;5011588;28;20038;-84
2024/01/27 10:27:38;;;;;;;103.72;53.42;;;6.90;99.10;;;;;;5013743;28;20041;-84
2024/01/27 10:30:07;;;;;;;42.67;33.67;;;6.80;99.10;;;;;;4992363;28;20423;-83
2024/01/27 10:32:33;;;;;;;40.85;33.47;;;6.80;99.40;;;;;;5011803;28;20041;-84
2024/01/27 10:35:09;;;;;;;56.13;33.85;;;6.80;99.30;;;;;;4998786;28;20088;-85
2024/01/27 10:37:36;;;;;;;41.65;32.95;;;6.80;99.30;;;;;;5003656;28;20034;-84
2024/01/27 10:40:12;;;;;;;43.33;34.65;;;6.70;99.40;;;;;;4993291;28;20041;-83
2024/01/27 10:42:38;;;;;;;51.05;35.38;;;6.80;99.50;;;;;;4989814;28;20100;-87
2024/01/27 10:45:05;;;;;;;51.60;38.75;;;6.80;99.40;;;;;;5006055;28;20492;-86
2024/01/27 10:47:32;;;;;;;43.80;36.15;;;6.80;99.40;;;;;;5009009;28;20092;-86
2024/01/27 10:49:59;;;;;;;43.47;34.03;;;6.80;99.40;;;;;;5013102;28;20476;-86
2024/01/27 10:52:31;;;;;;;46.85;37.67;;;6.90;99.50;;;;;;4994042;28;20034;-86
2024/01/27 10:55:03;;;;;;;47.83;37.08;;;7.00;99.50;;;;;;5003839;28;20042;-85
2024/01/27 10:57:33;;;;;;;76.47;55.08;;;7.10;99.40;;;;;;4992036;28;20508;-86
2024/01/27 11:00:00;;;;;;;;;;;7.20;99.30;;;;;;4999483;28;20034;-85
2024/01/27 11:02:34;;;;;;;48.78;37.30;;;7.20;99.20;;;;;;4994438;28;19912;-85
2024/01/27 11:05:04;;;;;;;39.42;31.90;;;7.20;99.10;;;;;;4993013;28;20034;-85
2024/01/27 11:07:35;;;;;;;54.38;41.75;;;7.20;98.90;;;;;;5013047;28;20041;-85
2024/01/27 11:10:01;;;;;;;46.40;35.72;;;7.10;98.90;;;;;;5012155;28;20095;-86
2024/01/27 11:12:27;;;;;;;45.42;35.33;;;7.10;99.10;;;;;;5002643;28;20195;-86
2024/01/27 11:15:02;;;;;;;47.53;38.63;;;7.20;99.30;;;;;;4993501;28;20057;-83
2024/01/27 11:18:03;;;;;;;45.03;37.03;;;7.20;99.20;;;;;;4992168;28;20053;-83
2024/01/27 11:20:33;;;;;;;63.33;42.97;;;7.30;99.10;;;;;;4994466;28;20084;-84
2024/01/27 11:23:14;;;;;;;48.72;38.13;;;7.30;98.80;;;;;;5012002;28;20038;-86
2024/01/27 11:25:40;;;;;;;;;;;7.30;98.90;;;;;;4995774;28;20033;-86
2024/01/27 11:28:29;;;;;;;39.45;30.73;;;7.30;98.80;;;;;;4990838;28;19964;-86
2024/01/27 11:30:55;;;;;;;44.80;33.92;;;7.30;99.00;;;;;;4987530;28;20039;-86
2024/01/27 11:33:25;;;;;;;52.88;39.95;;;7.30;99.10;;;;;;4993448;28;20030;-85
2024/01/27 11:36:02;;;;;;;50.33;39.90;;;7.30;99.10;;;;;;4989616;28;20084;-85
2024/01/27 11:38:32;;;;;;;55.95;39.08;;;7.30;99.20;;;;;;4994814;28;20049;-85
2024/01/27 11:40:59;;;;;;;61.70;46.50;;;7.30;99.10;;;;;;5000150;28;20046;-83
2024/01/27 11:43:25;;;;;;;45.78;36.28;;;7.20;99.10;;;;;;5020607;28;20112;-83
2024/01/27 11:46:01;;;;;;;49.65;36.92;;;7.20;99.30;;;;;;5010847;28;20037;-84
2024/01/27 11:48:30;;;;;;;60.58;45.65;;;7.20;99.40;;;;;;4997224;28;20030;-84
2024/01/27 11:51:10;;;;;;;54.70;40.58;;;7.30;99.50;;;;;;4998664;28;20119;-84
2024/01/27 11:53:36;;;;;;;85.10;64.37;;;7.40;99.30;;;;;;5015599;28;20091;-84
2024/01/27 11:56:01;;;;;;;63.40;49.70;;;7.40;99.30;;;;;;5017427;28;20657;-84
2024/01/27 11:58:27;;;;;;;60.75;45.72;;;7.40;99.40;;;;;;5016054;28;20043;-86
2024/01/27 12:00:53;;;;;;;55.42;43.78;;;7.50;99.50;;;;;;4994745;28;20034;-86
2024/01/27 12:03:20;;;;;;;53.35;42.55;;;7.50;99.40;;;;;;4998590;28;20507;-86
2024/01/27 12:05:45;;;;;;;65.57;51.03;;;7.50;99.40;;;;;;5085843;23;20047;-85
2024/01/27 12:08:11;;;;;;;94.63;70.00;;;7.50;99.40;;;;;;4957445;29;20058;-85
2024/01/27 12:10:37;;;;;;;62.60;47.20;;;7.60;99.30;;;;;;4957474;29;20036;-84
2024/01/27 12:13:03;;;;;;;62.58;48.47;;;7.60;99.30;;;;;;4954563;29;20031;-85
2024/01/27 12:15:28;;;;;;;56.42;44.55;;;7.60;99.40;;;;;;4957682;29;20027;-85
2024/01/27 12:17:54;;;;;;;72.75;53.35;;;7.50;99.80;;;;;;4953024;29;20032;-87
2024/01/27 12:20:26;;;;;;;56.38;44.53;;;7.50;99.70;;;;;;4948901;29;20119;-86
2024/01/27 12:23:09;;;;;;;132.70;97.80;;;7.60;99.80;;;;;;4956635;29;20043;-88
2024/01/27 12:25:52;;;;;;;138.70;94.75;;;7.60;99.90;;;;;;4956148;29;20031;-82
2024/01/27 12:28:29;;;;;;;55.28;43.53;;;7.20;99.90;;;;;;4955895;29;20039;-86
2024/01/27 12:30:55;;;;;;;71.68;54.00;;;7.20;99.90;;;;;;4956356;29;20083;-90
2024/01/27 12:33:31;;;;;;;70.38;54.50;;;7.30;99.90;;;;;;4945645;29;20118;-87